PWSweather.com
Personal Weather Stations
Station Observations
WD4JKH
Forsyth, GA 31029

Forsyth, GA 31029

Lat: 33.033225, Lon: -83.927995

Elevation: 709

Station Type: Davis Vantage VUE

High Low Average
Temperature 55.0°F12.8°C 44.9°F7.2°C 49.1°F9.5°C
Dew Point 47.3°F8.5°C 40.6°F4.8°C 44.3°F6.8°C
Winds 8.3 mph 13.4 kmh Calm Calm 3.0 mph WSW4.8 kmh WSW
Wind Gusts 25.0 mph40.2 kmh 2.0 mph3.2 kmh 12.0 mph19.3 kmh
Humidity 94% 71% 84%
Pressure 30.00 in1015.9 mb 29.70 in1005.8 mb -
Precipitation 0.02 in0.5 mm - -
Hour Temp Dew Point Humidity Winds Wind Gusts Pressure Precip Precip Rate Daily Precip Total
12:00 AM 47.5°F8.6°C 42.6°F5.9°C 83% 7.0 mph WSW11.3 kmh WSW 18.0 mph29.0 kmh 29.72 in1006.4 mb 0.00 in0.0 mm 0.00 in0.0 mm 0.00 in0.0 mm
12:05 AM 47.7°F8.7°C 42.8°F6.0°C 83% 3.8 mph WSW6.1 kmh WSW 18.0 mph29.0 kmh 29.72 in1006.4 mb 0.00 in0.0 mm 0.00 in0.0 mm 0.00 in0.0 mm
12:10 AM 47.8°F8.8°C 42.9°F6.1°C 83% 2.1 mph WSW3.4 kmh WSW 18.0 mph29.0 kmh 29.72 in1006.4 mb 0.00 in0.0 mm 0.00 in0.0 mm 0.00 in0.0 mm
12:15 AM 47.8°F8.8°C 42.9°F6.1°C 83% 2.9 mph SW4.7 kmh SW 18.0 mph29.0 kmh 29.72 in1006.4 mb 0.00 in0.0 mm 0.00 in0.0 mm 0.00 in0.0 mm
12:20 AM 47.9°F8.8°C 43.0°F6.1°C 83% 3.7 mph WSW6.0 kmh WSW 13.0 mph20.9 kmh 29.72 in1006.4 mb 0.00 in0.0 mm 0.00 in0.0 mm 0.00 in0.0 mm
12:25 AM 47.8°F8.8°C 42.9°F6.1°C 83% 3.6 mph SW5.8 kmh SW 13.0 mph20.9 kmh 29.72 in1006.4 mb 0.00 in0.0 mm 0.00 in0.0 mm 0.00 in0.0 mm
12:30 AM 47.7°F8.7°C 43.1°F6.2°C 84% 5.3 mph SW8.5 kmh SW 12.0 mph19.3 kmh 29.73 in1006.8 mb 0.00 in0.0 mm 0.00 in0.0 mm 0.00 in0.0 mm
12:35 AM 47.6°F8.7°C 43.3°F6.3°C 85% 4.2 mph SW6.8 kmh SW 12.0 mph19.3 kmh 29.73 in1006.8 mb 0.00 in0.0 mm 0.00 in0.0 mm 0.00 in0.0 mm
12:40 AM 47.5°F8.6°C 43.2°F6.2°C 85% 2.8 mph SW4.5 kmh SW 12.0 mph19.3 kmh 29.73 in1006.8 mb 0.00 in0.0 mm 0.00 in0.0 mm 0.00 in0.0 mm
12:44 AM 47.4°F8.6°C 43.4°F6.3°C 86% 4.7 mph SW7.6 kmh SW 17.0 mph27.4 kmh 29.73 in1006.8 mb 0.00 in0.0 mm 0.00 in0.0 mm 0.00 in0.0 mm
12:49 AM 47.2°F8.4°C 43.2°F6.2°C 86% 3.8 mph SW6.1 kmh SW 17.0 mph27.4 kmh 29.73 in1006.8 mb 0.00 in0.0 mm 0.00 in0.0 mm 0.00 in0.0 mm
12:54 AM 47.1°F8.4°C 43.1°F6.2°C 86% 5.2 mph SW8.4 kmh SW 17.0 mph27.4 kmh 29.73 in1006.8 mb 0.00 in0.0 mm 0.00 in0.0 mm 0.00 in0.0 mm
12:59 AM 46.9°F8.3°C 43.2°F6.2°C 87% 5.3 mph SW8.5 kmh SW 17.0 mph27.4 kmh 29.73 in1006.8 mb 0.00 in0.0 mm 0.00 in0.0 mm 0.00 in0.0 mm
01:04 AM 46.8°F8.2°C 43.1°F6.2°C 87% 2.8 mph SW4.5 kmh SW 13.0 mph20.9 kmh 29.74 in1007.1 mb 0.00 in0.0 mm 0.00 in0.0 mm 0.00 in0.0 mm
01:09 AM 46.6°F8.1°C 42.9°F6.1°C 87% 1.9 mph SW3.1 kmh SW 13.0 mph20.9 kmh 29.73 in1006.8 mb 0.00 in0.0 mm 0.00 in0.0 mm 0.00 in0.0 mm
01:14 AM 46.5°F8.1°C 42.8°F6.0°C 87% 2.8 mph WSW4.5 kmh WSW 13.0 mph20.9 kmh 29.73 in1006.8 mb 0.00 in0.0 mm 0.00 in0.0 mm 0.00 in0.0 mm
01:19 AM 46.3°F7.9°C 42.9°F6.1°C 88% 5.3 mph SW8.5 kmh SW 10.0 mph16.1 kmh 29.73 in1006.8 mb 0.00 in0.0 mm 0.00 in0.0 mm 0.00 in0.0 mm
01:24 AM 46.1°F7.8°C 42.7°F5.9°C 88% 2.9 mph SW4.7 kmh SW 10.0 mph16.1 kmh 29.73 in1006.8 mb 0.00 in0.0 mm 0.00 in0.0 mm 0.00 in0.0 mm
01:29 AM 46.0°F7.8°C 42.6°F5.9°C 88% 3.7 mph SW6.0 kmh SW 10.0 mph16.1 kmh 29.73 in1006.8 mb 0.00 in0.0 mm 0.00 in0.0 mm 0.00 in0.0 mm
01:34 AM 45.9°F7.7°C 42.5°F5.8°C 88% 3.4 mph SW5.5 kmh SW 13.0 mph20.9 kmh 29.73 in1006.8 mb 0.00 in0.0 mm 0.00 in0.0 mm 0.00 in0.0 mm
01:39 AM 46.0°F7.8°C 42.6°F5.9°C 88% 3.9 mph SW6.3 kmh SW 13.0 mph20.9 kmh 29.73 in1006.8 mb 0.00 in0.0 mm 0.00 in0.0 mm 0.00 in0.0 mm
01:44 AM 45.9°F7.7°C 42.2°F5.7°C 87% 2.6 mph SW4.2 kmh SW 13.0 mph20.9 kmh 29.73 in1006.8 mb 0.00 in0.0 mm 0.00 in0.0 mm 0.00 in0.0 mm
01:49 AM 45.8°F7.7°C 42.4°F5.8°C 88% 3.8 mph SW6.1 kmh SW 13.0 mph20.9 kmh 29.73 in1006.8 mb 0.00 in0.0 mm 0.00 in0.0 mm 0.00 in0.0 mm
01:54 AM 45.7°F7.6°C 42.3°F5.7°C 88% 4.0 mph WSW6.4 kmh WSW 11.0 mph17.7 kmh 29.73 in1006.8 mb 0.00 in0.0 mm 0.00 in0.0 mm 0.00 in0.0 mm
01:59 AM 45.7°F7.6°C 42.0°F5.6°C 87% 3.4 mph SW5.5 kmh SW 11.0 mph17.7 kmh 29.73 in1006.8 mb 0.00 in0.0 mm 0.00 in0.0 mm 0.00 in0.0 mm
02:04 AM 45.8°F7.7°C 42.1°F5.6°C 87% 2.3 mph SW3.7 kmh SW 11.0 mph17.7 kmh 29.72 in1006.4 mb 0.00 in0.0 mm 0.00 in0.0 mm 0.00 in0.0 mm
02:09 AM 45.9°F7.7°C 42.2°F5.7°C 87% 3.0 mph SW4.8 kmh SW 11.0 mph17.7 kmh 29.72 in1006.4 mb 0.00 in0.0 mm 0.00 in0.0 mm 0.00 in0.0 mm
02:14 AM 45.9°F7.7°C 42.2°F5.7°C 87% 3.7 mph SW6.0 kmh SW 11.0 mph17.7 kmh 29.72 in1006.4 mb 0.00 in0.0 mm 0.00 in0.0 mm 0.00 in0.0 mm
02:19 AM 45.9°F7.7°C 41.9°F5.5°C 86% 3.4 mph SW5.5 kmh SW 11.0 mph17.7 kmh 29.72 in1006.4 mb 0.00 in0.0 mm 0.00 in0.0 mm 0.00 in0.0 mm
02:24 AM 45.9°F7.7°C 41.9°F5.5°C 86% 3.8 mph WSW6.1 kmh WSW 11.0 mph17.7 kmh 29.72 in1006.4 mb 0.00 in0.0 mm 0.00 in0.0 mm 0.00 in0.0 mm
02:29 AM 45.9°F7.7°C 42.2°F5.7°C 87% 2.5 mph SW4.0 kmh SW 11.0 mph17.7 kmh 29.72 in1006.4 mb 0.00 in0.0 mm 0.00 in0.0 mm 0.00 in0.0 mm
02:34 AM 46.0°F7.8°C 42.0°F5.6°C 86% 1.7 mph SW2.7 kmh SW 10.0 mph16.1 kmh 29.72 in1006.4 mb 0.00 in0.0 mm 0.00 in0.0 mm 0.00 in0.0 mm
02:39 AM 46.0°F7.8°C 42.0°F5.6°C 86% 2.7 mph SW4.3 kmh SW 10.0 mph16.1 kmh 29.72 in1006.4 mb 0.00 in0.0 mm 0.00 in0.0 mm 0.00 in0.0 mm
02:44 AM 46.1°F7.8°C 42.1°F5.6°C 86% 1.6 mph SW2.6 kmh SW 8.0 mph12.9 kmh 29.72 in1006.4 mb 0.00 in0.0 mm 0.00 in0.0 mm 0.00 in0.0 mm
02:49 AM 46.1°F7.8°C 42.1°F5.6°C 86% 2.7 mph WSW4.3 kmh WSW 9.0 mph14.5 kmh 29.72 in1006.4 mb 0.00 in0.0 mm 0.00 in0.0 mm 0.00 in0.0 mm
02:54 AM 46.1°F7.8°C 41.8°F5.4°C 85% 5.1 mph WSW8.2 kmh WSW 11.0 mph17.7 kmh 29.72 in1006.4 mb 0.00 in0.0 mm 0.00 in0.0 mm 0.00 in0.0 mm
02:59 AM 46.1°F7.8°C 42.1°F5.6°C 86% 3.2 mph SW5.1 kmh SW 11.0 mph17.7 kmh 29.71 in1006.1 mb 0.00 in0.0 mm 0.00 in0.0 mm 0.00 in0.0 mm
03:04 AM 46.1°F7.8°C 41.8°F5.4°C 85% 3.0 mph WSW4.8 kmh WSW 11.0 mph17.7 kmh 29.71 in1006.1 mb 0.00 in0.0 mm 0.00 in0.0 mm 0.00 in0.0 mm
03:09 AM 46.1°F7.8°C 41.8°F5.4°C 85% 2.0 mph SW3.2 kmh SW 11.0 mph17.7 kmh 29.71 in1006.1 mb 0.00 in0.0 mm 0.00 in0.0 mm 0.00 in0.0 mm
03:14 AM 46.2°F7.9°C 41.9°F5.5°C 85% 4.2 mph SW6.8 kmh SW 13.0 mph20.9 kmh 29.71 in1006.1 mb 0.00 in0.0 mm 0.00 in0.0 mm 0.00 in0.0 mm
03:19 AM 46.2°F7.9°C 41.9°F5.5°C 85% 3.2 mph WSW5.1 kmh WSW 13.0 mph20.9 kmh 29.71 in1006.1 mb 0.00 in0.0 mm 0.00 in0.0 mm 0.00 in0.0 mm
03:24 AM 46.2°F7.9°C 42.2°F5.7°C 86% 3.0 mph SW4.8 kmh SW 13.0 mph20.9 kmh 29.71 in1006.1 mb 0.00 in0.0 mm 0.00 in0.0 mm 0.00 in0.0 mm
03:29 AM 46.2°F7.9°C 42.2°F5.7°C 86% 4.9 mph SW7.9 kmh SW 13.0 mph20.9 kmh 29.71 in1006.1 mb 0.00 in0.0 mm 0.00 in0.0 mm 0.00 in0.0 mm
03:34 AM 46.2°F7.9°C 42.5°F5.8°C 87% 3.6 mph SW5.8 kmh SW 11.0 mph17.7 kmh 29.71 in1006.1 mb 0.00 in0.0 mm 0.00 in0.0 mm 0.00 in0.0 mm
03:39 AM 46.3°F7.9°C 42.6°F5.9°C 87% 1.9 mph WSW3.1 kmh WSW 11.0 mph17.7 kmh 29.71 in1006.1 mb 0.00 in0.0 mm 0.00 in0.0 mm 0.00 in0.0 mm
03:44 AM 46.3°F7.9°C 42.0°F5.6°C 85% 5.1 mph WSW8.2 kmh WSW 13.0 mph20.9 kmh 29.70 in1005.8 mb 0.00 in0.0 mm 0.00 in0.0 mm 0.00 in0.0 mm
03:49 AM 46.4°F8.0°C 41.8°F5.4°C 84% 4.4 mph WSW7.1 kmh WSW 13.0 mph20.9 kmh 29.71 in1006.1 mb 0.00 in0.0 mm 0.00 in0.0 mm 0.00 in0.0 mm
03:54 AM 46.5°F8.1°C 41.3°F5.2°C 82% 5.8 mph WSW9.3 kmh WSW 15.0 mph24.1 kmh 29.71 in1006.1 mb 0.00 in0.0 mm 0.00 in0.0 mm 0.00 in0.0 mm
03:59 AM 46.5°F8.1°C 41.3°F5.2°C 82% 3.9 mph WSW6.3 kmh WSW 15.0 mph24.1 kmh 29.70 in1005.8 mb 0.00 in0.0 mm 0.00 in0.0 mm 0.00 in0.0 mm
04:04 AM 46.5°F8.1°C 41.6°F5.3°C 83% 2.2 mph WSW3.5 kmh WSW 15.0 mph24.1 kmh 29.71 in1006.1 mb 0.00 in0.0 mm 0.00 in0.0 mm 0.00 in0.0 mm
04:09 AM 46.5°F8.1°C 41.3°F5.2°C 82% 2.6 mph SW4.2 kmh SW 15.0 mph24.1 kmh 29.71 in1006.1 mb 0.00 in0.0 mm 0.00 in0.0 mm 0.00 in0.0 mm
04:14 AM 46.4°F8.0°C 41.2°F5.1°C 82% 4.6 mph SW7.4 kmh SW 11.0 mph17.7 kmh 29.70 in1005.8 mb 0.00 in0.0 mm 0.00 in0.0 mm 0.00 in0.0 mm
04:19 AM 46.3°F7.9°C 41.1°F5.1°C 82% 2.9 mph SW4.7 kmh SW 11.0 mph17.7 kmh 29.70 in1005.8 mb 0.00 in0.0 mm 0.00 in0.0 mm 0.00 in0.0 mm
04:24 AM 46.2°F7.9°C 41.0°F5.0°C 82% 3.7 mph SW6.0 kmh SW 11.0 mph17.7 kmh 29.70 in1005.8 mb 0.00 in0.0 mm 0.00 in0.0 mm 0.00 in0.0 mm
04:29 AM 46.1°F7.8°C 40.9°F4.9°C 82% 3.8 mph SW6.1 kmh SW 11.0 mph17.7 kmh 29.70 in1005.8 mb 0.00 in0.0 mm 0.00 in0.0 mm 0.00 in0.0 mm
04:34 AM 46.0°F7.8°C 40.8°F4.9°C 82% 4.1 mph WSW6.6 kmh WSW 13.0 mph20.9 kmh 29.70 in1005.8 mb 0.00 in0.0 mm 0.00 in0.0 mm 0.00 in0.0 mm
04:39 AM 45.9°F7.7°C 41.0°F5.0°C 83% 3.9 mph SW6.3 kmh SW 13.0 mph20.9 kmh 29.70 in1005.8 mb 0.00 in0.0 mm 0.00 in0.0 mm 0.00 in0.0 mm
04:44 AM 45.8°F7.7°C 40.9°F4.9°C 83% 5.5 mph WSW8.9 kmh WSW 13.0 mph20.9 kmh 29.70 in1005.8 mb 0.00 in0.0 mm 0.00 in0.0 mm 0.00 in0.0 mm
04:49 AM 45.6°F7.6°C 40.7°F4.8°C 83% 6.0 mph WSW9.7 kmh WSW 14.0 mph22.5 kmh 29.71 in1006.1 mb 0.00 in0.0 mm 0.00 in0.0 mm 0.00 in0.0 mm
04:54 AM 45.5°F7.5°C 40.9°F4.9°C 84% 3.7 mph SW6.0 kmh SW 14.0 mph22.5 kmh 29.71 in1006.1 mb 0.00 in0.0 mm 0.00 in0.0 mm 0.00 in0.0 mm
04:59 AM 45.3°F7.4°C 40.7°F4.8°C 84% 5.1 mph SW8.2 kmh SW 14.0 mph22.5 kmh 29.71 in1006.1 mb 0.00 in0.0 mm 0.00 in0.0 mm 0.00 in0.0 mm
05:04 AM 45.1°F7.3°C 40.6°F4.8°C 84% 4.0 mph WSW6.4 kmh WSW 14.0 mph22.5 kmh 29.71 in1006.1 mb 0.00 in0.0 mm 0.00 in0.0 mm 0.00 in0.0 mm
05:09 AM 45.1°F7.3°C 40.8°F4.9°C 85% 5.0 mph WSW8.0 kmh WSW 13.0 mph20.9 kmh 29.71 in1006.1 mb 0.00 in0.0 mm 0.00 in0.0 mm 0.00 in0.0 mm
05:14 AM 45.0°F7.2°C 40.7°F4.8°C 85% 3.9 mph SW6.3 kmh SW 13.0 mph20.9 kmh 29.71 in1006.1 mb 0.00 in0.0 mm 0.00 in0.0 mm 0.00 in0.0 mm
05:19 AM 44.9°F7.2°C 40.7°F4.8°C 85% 2.2 mph WSW3.5 kmh WSW 13.0 mph20.9 kmh 29.71 in1006.1 mb 0.00 in0.0 mm 0.00 in0.0 mm 0.00 in0.0 mm
05:24 AM 45.0°F7.2°C 40.7°F4.8°C 85% 5.8 mph SW9.3 kmh SW 13.0 mph20.9 kmh 29.70 in1005.8 mb 0.00 in0.0 mm 0.00 in0.0 mm 0.00 in0.0 mm
05:29 AM 45.0°F7.2°C 40.7°F4.8°C 85% 5.0 mph SW8.0 kmh SW 12.0 mph19.3 kmh 29.71 in1006.1 mb 0.00 in0.0 mm 0.00 in0.0 mm 0.00 in0.0 mm
05:34 AM 45.1°F7.3°C 41.2°F5.1°C 86% 4.9 mph SW7.9 kmh SW 12.0 mph19.3 kmh 29.71 in1006.1 mb 0.00 in0.0 mm 0.00 in0.0 mm 0.00 in0.0 mm
05:39 AM 45.1°F7.3°C 41.2°F5.1°C 86% 5.6 mph WSW9.0 kmh WSW 12.0 mph19.3 kmh 29.71 in1006.1 mb 0.00 in0.0 mm 0.00 in0.0 mm 0.00 in0.0 mm
05:43 AM 45.2°F7.3°C 41.2°F5.1°C 86% 4.8 mph SW7.7 kmh SW 11.0 mph17.7 kmh 29.71 in1006.1 mb 0.00 in0.0 mm 0.00 in0.0 mm 0.00 in0.0 mm
05:48 AM 45.2°F7.3°C 41.2°F5.1°C 86% 3.8 mph SW6.1 kmh SW 12.0 mph19.3 kmh 29.71 in1006.1 mb 0.00 in0.0 mm 0.00 in0.0 mm 0.00 in0.0 mm
05:53 AM 45.1°F7.3°C 41.2°F5.1°C 86% 4.5 mph SW7.2 kmh SW 12.0 mph19.3 kmh 29.71 in1006.1 mb 0.00 in0.0 mm 0.00 in0.0 mm 0.00 in0.0 mm
05:58 AM 45.1°F7.3°C 41.2°F5.1°C 86% 3.3 mph SW5.3 kmh SW 12.0 mph19.3 kmh 29.71 in1006.1 mb 0.00 in0.0 mm 0.00 in0.0 mm 0.00 in0.0 mm
06:03 AM 45.2°F7.3°C 41.2°F5.1°C 86% 4.1 mph SW6.6 kmh SW 12.0 mph19.3 kmh 29.71 in1006.1 mb 0.00 in0.0 mm 0.00 in0.0 mm 0.00 in0.0 mm
06:08 AM 45.2°F7.3°C 41.2°F5.1°C 86% 3.0 mph SW4.8 kmh SW 12.0 mph19.3 kmh 29.71 in1006.1 mb 0.00 in0.0 mm 0.00 in0.0 mm 0.00 in0.0 mm
06:13 AM 45.2°F7.3°C 41.2°F5.1°C 86% 5.5 mph SW8.9 kmh SW 13.0 mph20.9 kmh 29.72 in1006.4 mb 0.00 in0.0 mm 0.00 in0.0 mm 0.00 in0.0 mm
06:18 AM 45.4°F7.4°C 41.4°F5.2°C 86% 2.1 mph WSW3.4 kmh WSW 13.0 mph20.9 kmh 29.72 in1006.4 mb 0.00 in0.0 mm 0.00 in0.0 mm 0.00 in0.0 mm
06:23 AM 45.5°F7.5°C 41.5°F5.3°C 86% 2.5 mph SW4.0 kmh SW 13.0 mph20.9 kmh 29.72 in1006.4 mb 0.00 in0.0 mm 0.00 in0.0 mm 0.00 in0.0 mm
06:28 AM 45.5°F7.5°C 41.2°F5.1°C 85% 4.5 mph SW7.2 kmh SW 13.0 mph20.9 kmh 29.73 in1006.8 mb 0.00 in0.0 mm 0.00 in0.0 mm 0.00 in0.0 mm
06:33 AM 45.6°F7.6°C 41.3°F5.2°C 85% 3.8 mph SW6.1 kmh SW 14.0 mph22.5 kmh 29.73 in1006.8 mb 0.00 in0.0 mm 0.00 in0.0 mm 0.00 in0.0 mm
06:38 AM 45.7°F7.6°C 41.8°F5.4°C 86% 2.7 mph SSW4.3 kmh SSW 14.0 mph22.5 kmh 29.73 in1006.8 mb 0.00 in0.0 mm 0.00 in0.0 mm 0.00 in0.0 mm
06:43 AM 45.7°F7.6°C 41.4°F5.2°C 85% 4.3 mph SW6.9 kmh SW 14.0 mph22.5 kmh 29.73 in1006.8 mb 0.00 in0.0 mm 0.00 in0.0 mm 0.00 in0.0 mm
06:48 AM 45.8°F7.7°C 41.5°F5.3°C 85% 4.8 mph WSW7.7 kmh WSW 14.0 mph22.5 kmh 29.73 in1006.8 mb 0.00 in0.0 mm 0.00 in0.0 mm 0.00 in0.0 mm
06:53 AM 45.9°F7.7°C 41.6°F5.3°C 85% 4.0 mph SW6.4 kmh SW 14.0 mph22.5 kmh 29.74 in1007.1 mb 0.00 in0.0 mm 0.00 in0.0 mm 0.00 in0.0 mm
06:58 AM 46.0°F7.8°C 41.7°F5.4°C 85% 2.5 mph SW4.0 kmh SW 14.0 mph22.5 kmh 29.74 in1007.1 mb 0.00 in0.0 mm 0.00 in0.0 mm 0.00 in0.0 mm
07:03 AM 46.0°F7.8°C 41.7°F5.4°C 85% 3.6 mph SW5.8 kmh SW 14.0 mph22.5 kmh 29.74 in1007.1 mb 0.00 in0.0 mm 0.00 in0.0 mm 0.00 in0.0 mm
07:08 AM 46.0°F7.8°C 42.0°F5.6°C 86% 2.3 mph SW3.7 kmh SW 13.0 mph20.9 kmh 29.74 in1007.1 mb 0.00 in0.0 mm 0.00 in0.0 mm 0.00 in0.0 mm
07:13 AM 45.9°F7.7°C 41.9°F5.5°C 86% 4.3 mph SW6.9 kmh SW 15.0 mph24.1 kmh 29.74 in1007.1 mb 0.00 in0.0 mm 0.00 in0.0 mm 0.00 in0.0 mm
07:18 AM 45.7°F7.6°C 42.0°F5.6°C 87% 1.7 mph WSW2.7 kmh WSW 15.0 mph24.1 kmh 29.75 in1007.5 mb 0.00 in0.0 mm 0.00 in0.0 mm 0.00 in0.0 mm
07:23 AM 45.6°F7.6°C 42.2°F5.7°C 88% 4.4 mph SW7.1 kmh SW 15.0 mph24.1 kmh 29.75 in1007.5 mb 0.00 in0.0 mm 0.00 in0.0 mm 0.00 in0.0 mm
07:28 AM 45.4°F7.4°C 42.3°F5.7°C 89% 3.5 mph SW5.6 kmh SW 15.0 mph24.1 kmh 29.75 in1007.5 mb 0.00 in0.0 mm 0.00 in0.0 mm 0.00 in0.0 mm
07:33 AM 45.3°F7.4°C 42.5°F5.8°C 90% 2.9 mph SW4.7 kmh SW 15.0 mph24.1 kmh 29.75 in1007.5 mb 0.00 in0.0 mm 0.00 in0.0 mm 0.00 in0.0 mm
07:38 AM 45.2°F7.3°C 42.4°F5.8°C 90% 2.6 mph SW4.2 kmh SW 15.0 mph24.1 kmh 29.76 in1007.8 mb 0.01 in0.3 mm 0.12 in3.0 mm 0.01 in0.3 mm
07:43 AM 45.1°F7.3°C 42.6°F5.9°C 91% 5.1 mph WSW8.2 kmh WSW 15.0 mph24.1 kmh 29.76 in1007.8 mb 0.01 in0.3 mm 0.00 in0.0 mm 0.01 in0.3 mm
07:48 AM 45.1°F7.3°C 42.6°F5.9°C 91% 3.7 mph SW6.0 kmh SW 15.0 mph24.1 kmh 29.76 in1007.8 mb 0.01 in0.3 mm 0.00 in0.0 mm 0.01 in0.3 mm
07:53 AM 45.0°F7.2°C 42.8°F6.0°C 92% 2.6 mph SW4.2 kmh SW 15.0 mph24.1 kmh 29.76 in1007.8 mb 0.01 in0.3 mm 0.00 in0.0 mm 0.01 in0.3 mm
07:58 AM 45.0°F7.2°C 42.8°F6.0°C 92% 3.2 mph SW5.1 kmh SW 13.0 mph20.9 kmh 29.76 in1007.8 mb 0.01 in0.3 mm 0.00 in0.0 mm 0.01 in0.3 mm
08:03 AM 45.0°F7.2°C 42.8°F6.0°C 92% 3.4 mph SW5.5 kmh SW 9.0 mph14.5 kmh 29.76 in1007.8 mb 0.01 in0.3 mm 0.00 in0.0 mm 0.01 in0.3 mm
08:08 AM 45.0°F7.2°C 42.8°F6.0°C 92% 5.1 mph SW8.2 kmh SW 11.0 mph17.7 kmh 29.76 in1007.8 mb 0.01 in0.3 mm 0.00 in0.0 mm 0.01 in0.3 mm
08:13 AM 45.0°F7.2°C 42.8°F6.0°C 92% 4.1 mph SW6.6 kmh SW 11.0 mph17.7 kmh 29.77 in1008.1 mb 0.01 in0.3 mm 0.00 in0.0 mm 0.01 in0.3 mm
08:18 AM 45.1°F7.3°C 42.9°F6.1°C 92% 3.3 mph SW5.3 kmh SW 12.0 mph19.3 kmh 29.77 in1008.1 mb 0.01 in0.3 mm 0.00 in0.0 mm 0.01 in0.3 mm
08:23 AM 45.1°F7.3°C 42.9°F6.1°C 92% 4.2 mph SW6.8 kmh SW 12.0 mph19.3 kmh 29.77 in1008.1 mb 0.01 in0.3 mm 0.00 in0.0 mm 0.01 in0.3 mm
08:28 AM 45.1°F7.3°C 43.2°F6.2°C 93% 4.6 mph SW7.4 kmh SW 12.0 mph19.3 kmh 29.77 in1008.1 mb 0.02 in0.5 mm 0.12 in3.0 mm 0.02 in0.5 mm
08:33 AM 45.1°F7.3°C 43.2°F6.2°C 93% 3.7 mph SW6.0 kmh SW 12.0 mph19.3 kmh 29.77 in1008.1 mb 0.02 in0.5 mm 0.00 in0.0 mm 0.02 in0.5 mm
08:38 AM 45.2°F7.3°C 43.3°F6.3°C 93% 2.1 mph SW3.4 kmh SW 10.0 mph16.1 kmh 29.77 in1008.1 mb 0.01 in0.3 mm 0.00 in0.0 mm 0.02 in0.5 mm
08:43 AM 45.3°F7.4°C 43.4°F6.3°C 93% 3.3 mph SW5.3 kmh SW 10.0 mph16.1 kmh 29.78 in1008.5 mb 0.01 in0.3 mm 0.00 in0.0 mm 0.02 in0.5 mm
08:48 AM 45.4°F7.4°C 43.4°F6.3°C 93% 2.8 mph SW4.5 kmh SW 10.0 mph16.1 kmh 29.78 in1008.5 mb 0.01 in0.3 mm 0.00 in0.0 mm 0.02 in0.5 mm
08:53 AM 45.5°F7.5°C 43.5°F6.4°C 93% 2.3 mph SW3.7 kmh SW 10.0 mph16.1 kmh 29.78 in1008.5 mb 0.01 in0.3 mm 0.00 in0.0 mm 0.02 in0.5 mm
08:58 AM 45.6°F7.6°C 44.0°F6.7°C 94% 1.9 mph SW3.1 kmh SW 8.0 mph12.9 kmh 29.78 in1008.5 mb 0.01 in0.3 mm 0.00 in0.0 mm 0.02 in0.5 mm
09:03 AM 45.7°F7.6°C 44.1°F6.7°C 94% 1.9 mph SW3.1 kmh SW 8.0 mph12.9 kmh 29.78 in1008.5 mb 0.01 in0.3 mm 0.00 in0.0 mm 0.02 in0.5 mm
09:08 AM 45.7°F7.6°C 43.7°F6.5°C 93% 2.8 mph SW4.5 kmh SW 8.0 mph12.9 kmh 29.78 in1008.5 mb 0.01 in0.3 mm 0.00 in0.0 mm 0.02 in0.5 mm
09:13 AM 45.7°F7.6°C 43.8°F6.6°C 93% 1.9 mph SSW3.1 kmh SSW 8.0 mph12.9 kmh 29.78 in1008.5 mb 0.01 in0.3 mm 0.00 in0.0 mm 0.02 in0.5 mm
09:18 AM 45.8°F7.7°C 43.9°F6.6°C 93% 2.1 mph SW3.4 kmh SW 10.0 mph16.1 kmh 29.78 in1008.5 mb 0.01 in0.3 mm 0.00 in0.0 mm 0.02 in0.5 mm
09:23 AM 45.8°F7.7°C 43.8°F6.6°C 93% 4.8 mph SW7.7 kmh SW 11.0 mph17.7 kmh 29.78 in1008.5 mb 0.01 in0.3 mm 0.00 in0.0 mm 0.02 in0.5 mm
09:28 AM 45.9°F7.7°C 44.2°F6.8°C 94% 1.9 mph SW3.1 kmh SW 11.0 mph17.7 kmh 29.78 in1008.5 mb 0.00 in0.0 mm 0.00 in0.0 mm 0.02 in0.5 mm
09:33 AM 45.9°F7.7°C 43.9°F6.6°C 93% 2.7 mph SW4.3 kmh SW 11.0 mph17.7 kmh 29.79 in1008.8 mb 0.00 in0.0 mm 0.00 in0.0 mm 0.02 in0.5 mm
09:38 AM 46.1°F7.8°C 44.1°F6.7°C 93% 4.5 mph SW7.2 kmh SW 13.0 mph20.9 kmh 29.79 in1008.8 mb 0.00 in0.0 mm 0.00 in0.0 mm 0.02 in0.5 mm
09:43 AM 46.2°F7.9°C 44.0°F6.7°C 92% 3.9 mph WSW6.3 kmh WSW 17.0 mph27.4 kmh 29.79 in1008.8 mb 0.00 in0.0 mm 0.00 in0.0 mm 0.02 in0.5 mm
09:48 AM 46.3°F7.9°C 44.1°F6.7°C 92% 5.1 mph SW8.2 kmh SW 17.0 mph27.4 kmh 29.79 in1008.8 mb 0.00 in0.0 mm 0.00 in0.0 mm 0.02 in0.5 mm
09:53 AM 46.3°F7.9°C 44.1°F6.7°C 92% 5.0 mph SW8.0 kmh SW 17.0 mph27.4 kmh 29.79 in1008.8 mb 0.00 in0.0 mm 0.00 in0.0 mm 0.02 in0.5 mm
09:58 AM 46.4°F8.0°C 43.9°F6.6°C 91% 5.8 mph SW9.3 kmh SW 17.0 mph27.4 kmh 29.80 in1009.1 mb 0.00 in0.0 mm 0.00 in0.0 mm 0.02 in0.5 mm
10:03 AM 46.4°F8.0°C 43.9°F6.6°C 91% 4.8 mph SW7.7 kmh SW 13.0 mph20.9 kmh 29.80 in1009.1 mb 0.00 in0.0 mm 0.00 in0.0 mm 0.02 in0.5 mm
10:08 AM 46.6°F8.1°C 44.1°F6.7°C 91% 3.2 mph WSW5.1 kmh WSW 13.0 mph20.9 kmh 29.80 in1009.1 mb 0.00 in0.0 mm 0.00 in0.0 mm 0.02 in0.5 mm
10:13 AM 46.8°F8.2°C 44.0°F6.7°C 90% 6.1 mph SW9.8 kmh SW 13.0 mph20.9 kmh 29.80 in1009.1 mb 0.00 in0.0 mm 0.00 in0.0 mm 0.02 in0.5 mm
10:18 AM 47.0°F8.3°C 44.2°F6.8°C 90% 3.0 mph SW4.8 kmh SW 13.0 mph20.9 kmh 29.80 in1009.1 mb 0.00 in0.0 mm 0.00 in0.0 mm 0.02 in0.5 mm
10:23 AM 47.2°F8.4°C 44.1°F6.7°C 89% 5.6 mph SW9.0 kmh SW 14.0 mph22.5 kmh 29.81 in1009.5 mb 0.00 in0.0 mm 0.00 in0.0 mm 0.02 in0.5 mm
10:28 AM 47.3°F8.5°C 44.2°F6.8°C 89% 3.0 mph WSW4.8 kmh WSW 14.0 mph22.5 kmh 29.81 in1009.5 mb 0.00 in0.0 mm 0.00 in0.0 mm 0.02 in0.5 mm
10:33 AM 47.5°F8.6°C 44.4°F6.9°C 89% 2.3 mph WSW3.7 kmh WSW 14.0 mph22.5 kmh 29.81 in1009.5 mb 0.00 in0.0 mm 0.00 in0.0 mm 0.02 in0.5 mm
10:38 AM 47.7°F8.7°C 44.3°F6.8°C 88% 3.3 mph WSW5.3 kmh WSW 14.0 mph22.5 kmh 29.81 in1009.5 mb 0.00 in0.0 mm 0.00 in0.0 mm 0.02 in0.5 mm
10:42 AM 47.9°F8.8°C 44.5°F6.9°C 88% 2.6 mph WSW4.2 kmh WSW 13.0 mph20.9 kmh 29.81 in1009.5 mb 0.00 in0.0 mm 0.00 in0.0 mm 0.02 in0.5 mm
10:48 AM 48.0°F8.9°C 44.6°F7.0°C 88% 3.4 mph SW5.5 kmh SW 9.0 mph14.5 kmh 29.82 in1009.8 mb 0.00 in0.0 mm 0.00 in0.0 mm 0.02 in0.5 mm
10:53 AM 48.0°F8.9°C 44.6°F7.0°C 88% 3.4 mph SW5.5 kmh SW 11.0 mph17.7 kmh 29.81 in1009.5 mb 0.00 in0.0 mm 0.00 in0.0 mm 0.02 in0.5 mm
10:58 AM 48.0°F8.9°C 44.3°F6.8°C 87% 4.0 mph SSW6.4 kmh SSW 11.0 mph17.7 kmh 29.82 in1009.8 mb 0.00 in0.0 mm 0.00 in0.0 mm 0.02 in0.5 mm
11:02 AM 48.0°F8.9°C 44.0°F6.7°C 86% 5.9 mph SW9.5 kmh SW 14.0 mph22.5 kmh 29.82 in1009.8 mb 0.00 in0.0 mm 0.00 in0.0 mm 0.02 in0.5 mm
11:07 AM 48.3°F9.1°C 44.3°F6.8°C 86% 4.6 mph WSW7.4 kmh WSW 14.0 mph22.5 kmh 29.82 in1009.8 mb 0.00 in0.0 mm 0.00 in0.0 mm 0.02 in0.5 mm
11:13 AM 48.7°F9.3°C 44.7°F7.1°C 86% 4.8 mph SW7.7 kmh SW 14.0 mph22.5 kmh 29.82 in1009.8 mb 0.00 in0.0 mm 0.00 in0.0 mm 0.02 in0.5 mm
11:17 AM 49.2°F9.6°C 44.6°F7.0°C 84% 5.5 mph WSW8.9 kmh WSW 14.0 mph22.5 kmh 29.81 in1009.5 mb 0.00 in0.0 mm 0.00 in0.0 mm 0.02 in0.5 mm
11:23 AM 49.4°F9.7°C 44.5°F6.9°C 83% 3.1 mph WSW5.0 kmh WSW 16.0 mph25.7 kmh 29.82 in1009.8 mb 0.00 in0.0 mm 0.00 in0.0 mm 0.02 in0.5 mm
11:28 AM 49.4°F9.7°C 43.8°F6.6°C 81% 5.6 mph WSW9.0 kmh WSW 19.0 mph30.6 kmh 29.82 in1009.8 mb 0.00 in0.0 mm 0.00 in0.0 mm 0.02 in0.5 mm
11:32 AM 49.4°F9.7°C 43.5°F6.4°C 80% 6.6 mph WSW10.6 kmh WSW 19.0 mph30.6 kmh 29.82 in1009.8 mb 0.00 in0.0 mm 0.00 in0.0 mm 0.02 in0.5 mm
11:38 AM 49.5°F9.7°C 43.6°F6.4°C 80% 5.6 mph WSW9.0 kmh WSW 19.0 mph30.6 kmh 29.82 in1009.8 mb 0.00 in0.0 mm 0.00 in0.0 mm 0.02 in0.5 mm
11:43 AM 49.5°F9.7°C 43.9°F6.6°C 81% 4.2 mph WSW6.8 kmh WSW 19.0 mph30.6 kmh 29.82 in1009.8 mb 0.00 in0.0 mm 0.00 in0.0 mm 0.02 in0.5 mm
11:48 AM 49.3°F9.6°C 44.4°F6.9°C 83% 3.7 mph WSW6.0 kmh WSW 16.0 mph25.7 kmh 29.83 in1010.2 mb 0.00 in0.0 mm 0.00 in0.0 mm 0.02 in0.5 mm
11:53 AM 49.0°F9.4°C 44.1°F6.7°C 83% 3.3 mph WSW5.3 kmh WSW 16.0 mph25.7 kmh 29.83 in1010.2 mb 0.00 in0.0 mm 0.00 in0.0 mm 0.02 in0.5 mm
11:58 AM 48.8°F9.3°C 43.9°F6.6°C 83% 4.4 mph WSW7.1 kmh WSW 16.0 mph25.7 kmh 29.83 in1010.2 mb 0.00 in0.0 mm 0.00 in0.0 mm 0.02 in0.5 mm
12:03 PM 48.8°F9.3°C 43.9°F6.6°C 83% 4.9 mph SW7.9 kmh SW 16.0 mph25.7 kmh 29.83 in1010.2 mb 0.00 in0.0 mm 0.00 in0.0 mm 0.02 in0.5 mm
12:08 PM 48.9°F9.4°C 44.3°F6.8°C 84% 3.5 mph WSW5.6 kmh WSW 13.0 mph20.9 kmh 29.83 in1010.2 mb 0.00 in0.0 mm 0.00 in0.0 mm 0.02 in0.5 mm
12:13 PM 49.2°F9.6°C 44.3°F6.8°C 83% 3.2 mph WSW5.1 kmh WSW 13.0 mph20.9 kmh 29.83 in1010.2 mb 0.00 in0.0 mm 0.00 in0.0 mm 0.02 in0.5 mm
12:18 PM 49.9°F9.9°C 45.0°F7.2°C 83% 3.5 mph WSW5.6 kmh WSW 17.0 mph27.4 kmh 29.83 in1010.2 mb 0.00 in0.0 mm 0.00 in0.0 mm 0.02 in0.5 mm
12:23 PM 50.5°F10.3°C 44.6°F7.0°C 80% 6.3 mph WSW10.1 kmh WSW 17.0 mph27.4 kmh 29.83 in1010.2 mb 0.00 in0.0 mm 0.00 in0.0 mm 0.02 in0.5 mm
12:28 PM 50.6°F10.3°C 45.3°F7.4°C 82% 3.3 mph WSW5.3 kmh WSW 17.0 mph27.4 kmh 29.83 in1010.2 mb 0.00 in0.0 mm 0.00 in0.0 mm 0.02 in0.5 mm
12:33 PM 50.7°F10.4°C 44.8°F7.1°C 80% 4.0 mph WSW6.4 kmh WSW 16.0 mph25.7 kmh 29.83 in1010.2 mb 0.00 in0.0 mm 0.00 in0.0 mm 0.02 in0.5 mm
12:38 PM 50.6°F10.3°C 45.0°F7.2°C 81% 6.9 mph WSW11.1 kmh WSW 13.0 mph20.9 kmh 29.83 in1010.2 mb 0.00 in0.0 mm 0.00 in0.0 mm 0.02 in0.5 mm
12:43 PM 50.6°F10.3°C 45.3°F7.4°C 82% 3.6 mph WSW5.8 kmh WSW 17.0 mph27.4 kmh 29.83 in1010.2 mb 0.00 in0.0 mm 0.00 in0.0 mm 0.02 in0.5 mm
12:48 PM 50.5°F10.3°C 45.2°F7.3°C 82% 5.8 mph WSW9.3 kmh WSW 17.0 mph27.4 kmh 29.83 in1010.2 mb 0.00 in0.0 mm 0.00 in0.0 mm 0.02 in0.5 mm
12:53 PM 50.2°F10.1°C 45.2°F7.3°C 83% 6.2 mph WSW10.0 kmh WSW 17.0 mph27.4 kmh 29.83 in1010.2 mb 0.00 in0.0 mm 0.00 in0.0 mm 0.02 in0.5 mm
12:58 PM 50.0°F10.0°C 45.0°F7.2°C 83% 5.1 mph WSW8.2 kmh WSW 21.0 mph33.8 kmh 29.84 in1010.5 mb 0.00 in0.0 mm 0.00 in0.0 mm 0.02 in0.5 mm
01:03 PM 50.0°F10.0°C 45.4°F7.4°C 84% 4.0 mph WSW6.4 kmh WSW 21.0 mph33.8 kmh 29.84 in1010.5 mb 0.00 in0.0 mm 0.00 in0.0 mm 0.02 in0.5 mm
01:08 PM 49.9°F9.9°C 45.0°F7.2°C 83% 6.1 mph WSW9.8 kmh WSW 21.0 mph33.8 kmh 29.84 in1010.5 mb 0.00 in0.0 mm 0.00 in0.0 mm 0.02 in0.5 mm
01:13 PM 49.6°F9.8°C 44.7°F7.1°C 83% 6.8 mph WSW10.9 kmh WSW 19.0 mph30.6 kmh 29.85 in1010.8 mb 0.00 in0.0 mm 0.00 in0.0 mm 0.02 in0.5 mm
01:18 PM 49.3°F9.6°C 44.7°F7.1°C 84% 8.3 mph WSW13.4 kmh WSW 22.0 mph35.4 kmh 29.85 in1010.8 mb 0.00 in0.0 mm 0.00 in0.0 mm 0.02 in0.5 mm
01:23 PM 49.0°F9.4°C 44.7°F7.1°C 85% 7.1 mph WSW11.4 kmh WSW 25.0 mph40.2 kmh 29.85 in1010.8 mb 0.00 in0.0 mm 0.00 in0.0 mm 0.02 in0.5 mm
01:28 PM 48.9°F9.4°C 44.9°F7.2°C 86% 6.7 mph WSW10.8 kmh WSW 25.0 mph40.2 kmh 29.85 in1010.8 mb 0.00 in0.0 mm 0.00 in0.0 mm 0.02 in0.5 mm
01:33 PM 49.3°F9.6°C 44.7°F7.1°C 84% 4.1 mph W6.6 kmh W 25.0 mph40.2 kmh 29.85 in1010.8 mb 0.00 in0.0 mm 0.00 in0.0 mm 0.02 in0.5 mm
01:38 PM 49.5°F9.7°C 44.6°F7.0°C 83% 6.1 mph WSW9.8 kmh WSW 17.0 mph27.4 kmh 29.85 in1010.8 mb 0.00 in0.0 mm 0.00 in0.0 mm 0.02 in0.5 mm
01:43 PM 49.5°F9.7°C 44.6°F7.0°C 83% 6.5 mph WSW10.5 kmh WSW 17.0 mph27.4 kmh 29.86 in1011.2 mb 0.00 in0.0 mm 0.00 in0.0 mm 0.02 in0.5 mm
01:48 PM 49.2°F9.6°C 44.6°F7.0°C 84% 8.1 mph W13.0 kmh W 19.0 mph30.6 kmh 29.85 in1010.8 mb 0.00 in0.0 mm 0.00 in0.0 mm 0.02 in0.5 mm
01:53 PM 48.9°F9.4°C 44.3°F6.8°C 84% 6.1 mph SW9.8 kmh SW 19.0 mph30.6 kmh 29.86 in1011.2 mb 0.00 in0.0 mm 0.00 in0.0 mm 0.02 in0.5 mm
01:58 PM 48.7°F9.3°C 44.1°F6.7°C 84% 5.5 mph WSW8.9 kmh WSW 19.0 mph30.6 kmh 29.86 in1011.2 mb 0.00 in0.0 mm 0.00 in0.0 mm 0.02 in0.5 mm
02:03 PM 48.7°F9.3°C 44.1°F6.7°C 84% 6.3 mph WSW10.1 kmh WSW 19.0 mph30.6 kmh 29.85 in1010.8 mb 0.00 in0.0 mm 0.00 in0.0 mm 0.02 in0.5 mm
02:08 PM 48.8°F9.3°C 44.2°F6.8°C 84% 3.7 mph WSW6.0 kmh WSW 17.0 mph27.4 kmh 29.85 in1010.8 mb 0.00 in0.0 mm 0.00 in0.0 mm 0.02 in0.5 mm
02:13 PM 48.9°F9.4°C 44.0°F6.7°C 83% 5.8 mph WSW9.3 kmh WSW 17.0 mph27.4 kmh 29.85 in1010.8 mb 0.00 in0.0 mm 0.00 in0.0 mm 0.02 in0.5 mm
02:18 PM 49.0°F9.4°C 44.1°F6.7°C 83% 6.0 mph W9.7 kmh W 17.0 mph27.4 kmh 29.86 in1011.2 mb 0.00 in0.0 mm 0.00 in0.0 mm 0.02 in0.5 mm
02:23 PM 49.1°F9.5°C 44.2°F6.8°C 83% 6.3 mph WSW10.1 kmh WSW 17.0 mph27.4 kmh 29.86 in1011.2 mb 0.00 in0.0 mm 0.00 in0.0 mm 0.02 in0.5 mm
02:28 PM 49.3°F9.6°C 44.4°F6.9°C 83% 6.9 mph WSW11.1 kmh WSW 17.0 mph27.4 kmh 29.86 in1011.2 mb 0.00 in0.0 mm 0.00 in0.0 mm 0.02 in0.5 mm
02:33 PM 49.5°F9.7°C 44.6°F7.0°C 83% 4.3 mph WSW6.9 kmh WSW 20.0 mph32.2 kmh 29.86 in1011.2 mb 0.00 in0.0 mm 0.00 in0.0 mm 0.02 in0.5 mm
02:38 PM 49.6°F9.8°C 44.3°F6.8°C 82% 4.7 mph WSW7.6 kmh WSW 20.0 mph32.2 kmh 29.86 in1011.2 mb 0.00 in0.0 mm 0.00 in0.0 mm 0.02 in0.5 mm
02:43 PM 49.7°F9.8°C 44.1°F6.7°C 81% 5.6 mph W9.0 kmh W 20.0 mph32.2 kmh 29.86 in1011.2 mb 0.00 in0.0 mm 0.00 in0.0 mm 0.02 in0.5 mm
02:48 PM 49.7°F9.8°C 44.1°F6.7°C 81% 5.3 mph W8.5 kmh W 16.0 mph25.7 kmh 29.86 in1011.2 mb 0.00 in0.0 mm 0.00 in0.0 mm 0.02 in0.5 mm
02:53 PM 49.8°F9.9°C 44.2°F6.8°C 81% 7.6 mph W12.2 kmh W 16.0 mph25.7 kmh 29.86 in1011.2 mb 0.00 in0.0 mm 0.00 in0.0 mm 0.02 in0.5 mm
02:58 PM 49.8°F9.9°C 44.5°F6.9°C 82% 4.7 mph W7.6 kmh W 16.0 mph25.7 kmh 29.87 in1011.5 mb 0.00 in0.0 mm 0.00 in0.0 mm 0.02 in0.5 mm
03:03 PM 49.8°F9.9°C 44.5°F6.9°C 82% 6.3 mph W10.1 kmh W 14.0 mph22.5 kmh 29.86 in1011.2 mb 0.00 in0.0 mm 0.00 in0.0 mm 0.02 in0.5 mm
03:08 PM 49.9°F9.9°C 44.6°F7.0°C 82% 5.2 mph W8.4 kmh W 13.0 mph20.9 kmh 29.86 in1011.2 mb 0.00 in0.0 mm 0.00 in0.0 mm 0.02 in0.5 mm
03:13 PM 49.9°F9.9°C 44.6°F7.0°C 82% 3.4 mph WSW5.5 kmh WSW 14.0 mph22.5 kmh 29.86 in1011.2 mb 0.00 in0.0 mm 0.00 in0.0 mm 0.02 in0.5 mm
03:18 PM 50.3°F10.2°C 44.7°F7.1°C 81% 4.5 mph W7.2 kmh W 14.0 mph22.5 kmh 29.86 in1011.2 mb 0.00 in0.0 mm 0.00 in0.0 mm 0.02 in0.5 mm
03:23 PM 50.8°F10.4°C 45.2°F7.3°C 81% 3.0 mph WSW4.8 kmh WSW 14.0 mph22.5 kmh 29.86 in1011.2 mb 0.00 in0.0 mm 0.00 in0.0 mm 0.02 in0.5 mm
03:28 PM 51.4°F10.8°C 45.4°F7.4°C 80% 3.9 mph WSW6.3 kmh WSW 14.0 mph22.5 kmh 29.87 in1011.5 mb 0.00 in0.0 mm 0.00 in0.0 mm 0.02 in0.5 mm
03:33 PM 51.5°F10.8°C 45.2°F7.3°C 79% 6.1 mph WSW9.8 kmh WSW 14.0 mph22.5 kmh 29.87 in1011.5 mb 0.00 in0.0 mm 0.00 in0.0 mm 0.02 in0.5 mm
03:38 PM 51.6°F10.9°C 45.7°F7.6°C 80% 5.4 mph WSW8.7 kmh WSW 14.0 mph22.5 kmh 29.87 in1011.5 mb 0.00 in0.0 mm 0.00 in0.0 mm 0.02 in0.5 mm
03:42 PM 52.2°F11.2°C 46.3°F7.9°C 80% 2.3 mph W3.7 kmh W 14.0 mph22.5 kmh 29.87 in1011.5 mb 0.00 in0.0 mm 0.00 in0.0 mm 0.02 in0.5 mm
03:47 PM 52.6°F11.4°C 46.3°F7.9°C 79% 2.0 mph W3.2 kmh W 14.0 mph22.5 kmh 29.87 in1011.5 mb 0.00 in0.0 mm 0.00 in0.0 mm 0.02 in0.5 mm
03:52 PM 52.7°F11.5°C 45.8°F7.7°C 77% 4.5 mph W7.2 kmh W 14.0 mph22.5 kmh 29.87 in1011.5 mb 0.00 in0.0 mm 0.00 in0.0 mm 0.02 in0.5 mm
03:57 PM 52.9°F11.6°C 46.0°F7.8°C 77% 5.2 mph WSW8.4 kmh WSW 15.0 mph24.1 kmh 29.87 in1011.5 mb 0.00 in0.0 mm 0.00 in0.0 mm 0.02 in0.5 mm
04:02 PM 53.1°F11.7°C 45.8°F7.7°C 76% 4.8 mph WNW7.7 kmh WNW 15.0 mph24.1 kmh 29.87 in1011.5 mb 0.00 in0.0 mm 0.00 in0.0 mm 0.02 in0.5 mm
04:07 PM 53.5°F11.9°C 46.5°F8.1°C 77% 5.2 mph W8.4 kmh W 15.0 mph24.1 kmh 29.87 in1011.5 mb 0.00 in0.0 mm 0.00 in0.0 mm 0.02 in0.5 mm
04:12 PM 53.7°F12.1°C 46.4°F8.0°C 76% 3.6 mph W5.8 kmh W 15.0 mph24.1 kmh 29.88 in1011.9 mb 0.00 in0.0 mm 0.00 in0.0 mm 0.02 in0.5 mm
04:17 PM 53.9°F12.2°C 45.9°F7.7°C 74% 5.9 mph W9.5 kmh W 16.0 mph25.7 kmh 29.88 in1011.9 mb 0.00 in0.0 mm 0.00 in0.0 mm 0.02 in0.5 mm
04:22 PM 53.9°F12.2°C 45.9°F7.7°C 74% 4.7 mph W7.6 kmh W 18.0 mph29.0 kmh 29.88 in1011.9 mb 0.00 in0.0 mm 0.00 in0.0 mm 0.02 in0.5 mm
04:27 PM 54.5°F12.5°C 46.1°F7.8°C 73% 4.2 mph WNW6.8 kmh WNW 18.0 mph29.0 kmh 29.88 in1011.9 mb 0.00 in0.0 mm 0.00 in0.0 mm 0.02 in0.5 mm
04:32 PM 55.0°F12.8°C 46.2°F7.9°C 72% 4.4 mph W7.1 kmh W 18.0 mph29.0 kmh 29.88 in1011.9 mb 0.00 in0.0 mm 0.00 in0.0 mm 0.02 in0.5 mm
04:37 PM 55.0°F12.8°C 45.8°F7.7°C 71% 7.1 mph WSW11.4 kmh WSW 18.0 mph29.0 kmh 29.88 in1011.9 mb 0.00 in0.0 mm 0.00 in0.0 mm 0.02 in0.5 mm
04:42 PM 54.7°F12.6°C 45.6°F7.6°C 71% 5.5 mph W8.9 kmh W 16.0 mph25.7 kmh 29.88 in1011.9 mb 0.00 in0.0 mm 0.00 in0.0 mm 0.02 in0.5 mm
04:47 PM 54.6°F12.6°C 45.9°F7.7°C 72% 4.7 mph WSW7.6 kmh WSW 16.0 mph25.7 kmh 29.88 in1011.9 mb 0.00 in0.0 mm 0.00 in0.0 mm 0.02 in0.5 mm
04:52 PM 54.5°F12.5°C 46.0°F7.8°C 73% 4.6 mph WSW7.4 kmh WSW 16.0 mph25.7 kmh 29.89 in1012.2 mb 0.00 in0.0 mm 0.00 in0.0 mm 0.02 in0.5 mm
04:57 PM 54.5°F12.5°C 46.1°F7.8°C 73% 2.8 mph W4.5 kmh W 15.0 mph24.1 kmh 29.89 in1012.2 mb 0.00 in0.0 mm 0.00 in0.0 mm 0.02 in0.5 mm
05:02 PM 54.6°F12.6°C 46.6°F8.1°C 74% 2.3 mph W3.7 kmh W 15.0 mph24.1 kmh 29.89 in1012.2 mb 0.00 in0.0 mm 0.00 in0.0 mm 0.02 in0.5 mm
05:07 PM 54.7°F12.6°C 46.3°F7.9°C 73% 3.0 mph WNW4.8 kmh WNW 15.0 mph24.1 kmh 29.89 in1012.2 mb 0.00 in0.0 mm 0.00 in0.0 mm 0.02 in0.5 mm
05:12 PM 54.7°F12.6°C 46.7°F8.2°C 74% 3.5 mph W5.6 kmh W 15.0 mph24.1 kmh 29.89 in1012.2 mb 0.00 in0.0 mm 0.00 in0.0 mm 0.02 in0.5 mm
05:17 PM 54.7°F12.6°C 46.7°F8.2°C 74% 5.1 mph WSW8.2 kmh WSW 11.0 mph17.7 kmh 29.89 in1012.2 mb 0.00 in0.0 mm 0.00 in0.0 mm 0.02 in0.5 mm
05:22 PM 54.7°F12.6°C 46.3°F7.9°C 73% 4.1 mph WSW6.6 kmh WSW 13.0 mph20.9 kmh 29.89 in1012.2 mb 0.00 in0.0 mm 0.00 in0.0 mm 0.02 in0.5 mm
05:27 PM 54.9°F12.7°C 46.5°F8.1°C 73% 1.4 mph W2.3 kmh W 13.0 mph20.9 kmh 29.89 in1012.2 mb 0.00 in0.0 mm 0.00 in0.0 mm 0.02 in0.5 mm
05:32 PM 55.0°F12.8°C 46.6°F8.1°C 73% 1.8 mph WSW2.9 kmh WSW 13.0 mph20.9 kmh 29.89 in1012.2 mb 0.00 in0.0 mm 0.00 in0.0 mm 0.02 in0.5 mm
05:37 PM 55.0°F12.8°C 46.9°F8.3°C 74% 2.7 mph W4.3 kmh W 13.0 mph20.9 kmh 29.89 in1012.2 mb 0.00 in0.0 mm 0.00 in0.0 mm 0.02 in0.5 mm
05:42 PM 55.0°F12.8°C 46.6°F8.1°C 73% 3.4 mph W5.5 kmh W 8.0 mph12.9 kmh 29.90 in1012.5 mb 0.00 in0.0 mm 0.00 in0.0 mm 0.02 in0.5 mm
05:47 PM 54.9°F12.7°C 46.9°F8.3°C 74% 2.8 mph W4.5 kmh W 9.0 mph14.5 kmh 29.90 in1012.5 mb 0.00 in0.0 mm 0.00 in0.0 mm 0.02 in0.5 mm
05:52 PM 54.9°F12.7°C 46.9°F8.3°C 74% 3.9 mph W6.3 kmh W 9.0 mph14.5 kmh 29.90 in1012.5 mb 0.00 in0.0 mm 0.00 in0.0 mm 0.02 in0.5 mm
05:57 PM 54.9°F12.7°C 46.9°F8.3°C 74% 2.1 mph WSW3.4 kmh WSW 9.0 mph14.5 kmh 29.90 in1012.5 mb 0.00 in0.0 mm 0.00 in0.0 mm 0.02 in0.5 mm
06:02 PM 54.9°F12.7°C 46.9°F8.3°C 74% 1.3 mph W2.1 kmh W 9.0 mph14.5 kmh 29.90 in1012.5 mb 0.00 in0.0 mm 0.00 in0.0 mm 0.02 in0.5 mm
06:07 PM 54.8°F12.7°C 46.4°F8.0°C 73% 3.1 mph W5.0 kmh W 8.0 mph12.9 kmh 29.90 in1012.5 mb 0.00 in0.0 mm 0.00 in0.0 mm 0.02 in0.5 mm
06:12 PM 54.8°F12.7°C 46.8°F8.2°C 74% 3.8 mph W6.1 kmh W 8.0 mph12.9 kmh 29.90 in1012.5 mb 0.00 in0.0 mm 0.00 in0.0 mm 0.02 in0.5 mm
06:17 PM 54.7°F12.6°C 46.7°F8.2°C 74% 3.1 mph W5.0 kmh W 8.0 mph12.9 kmh 29.90 in1012.5 mb 0.00 in0.0 mm 0.00 in0.0 mm 0.02 in0.5 mm
06:22 PM 54.7°F12.6°C 46.7°F8.2°C 74% 2.2 mph W3.5 kmh W 8.0 mph12.9 kmh 29.91 in1012.9 mb 0.00 in0.0 mm 0.00 in0.0 mm 0.02 in0.5 mm
06:27 PM 54.6°F12.6°C 46.6°F8.1°C 74% 1.2 mph W1.9 kmh W 8.0 mph12.9 kmh 29.91 in1012.9 mb 0.00 in0.0 mm 0.00 in0.0 mm 0.02 in0.5 mm
06:32 PM 54.6°F12.6°C 46.9°F8.3°C 75% 1.7 mph WSW2.7 kmh WSW 7.0 mph11.3 kmh 29.91 in1012.9 mb 0.00 in0.0 mm 0.00 in0.0 mm 0.02 in0.5 mm
06:37 PM 54.5°F12.5°C 46.8°F8.2°C 75% 1.3 mph SW2.1 kmh SW 6.0 mph9.7 kmh 29.92 in1013.2 mb 0.00 in0.0 mm 0.00 in0.0 mm 0.02 in0.5 mm
06:42 PM 54.4°F12.4°C 46.7°F8.2°C 75% 1.5 mph W2.4 kmh W 6.0 mph9.7 kmh 29.92 in1013.2 mb 0.00 in0.0 mm 0.00 in0.0 mm 0.02 in0.5 mm
06:47 PM 54.3°F12.4°C 46.6°F8.1°C 75% 1.6 mph W2.6 kmh W 6.0 mph9.7 kmh 29.92 in1013.2 mb 0.00 in0.0 mm 0.00 in0.0 mm 0.02 in0.5 mm
06:52 PM 54.3°F12.4°C 46.9°F8.3°C 76% 2.2 mph SW3.5 kmh SW 6.0 mph9.7 kmh 29.92 in1013.2 mb 0.00 in0.0 mm 0.00 in0.0 mm 0.02 in0.5 mm
06:57 PM 54.1°F12.3°C 46.7°F8.2°C 76% 2.4 mph WSW3.9 kmh WSW 6.0 mph9.7 kmh 29.92 in1013.2 mb 0.00 in0.0 mm 0.00 in0.0 mm 0.02 in0.5 mm
07:02 PM 54.1°F12.3°C 46.7°F8.2°C 76% 2.3 mph WSW3.7 kmh WSW 6.0 mph9.7 kmh 29.92 in1013.2 mb 0.00 in0.0 mm 0.00 in0.0 mm 0.02 in0.5 mm
07:07 PM 54.0°F12.2°C 46.7°F8.2°C 76% 2.5 mph WSW4.0 kmh WSW 6.0 mph9.7 kmh 29.92 in1013.2 mb 0.00 in0.0 mm 0.00 in0.0 mm 0.02 in0.5 mm
07:12 PM 54.0°F12.2°C 46.7°F8.2°C 76% 1.7 mph WSW2.7 kmh WSW 6.0 mph9.7 kmh 29.93 in1013.5 mb 0.00 in0.0 mm 0.00 in0.0 mm 0.02 in0.5 mm
07:17 PM 54.0°F12.2°C 46.3°F7.9°C 75% 2.6 mph WSW4.2 kmh WSW 5.0 mph8.0 kmh 29.93 in1013.5 mb 0.00 in0.0 mm 0.00 in0.0 mm 0.02 in0.5 mm
07:22 PM 53.9°F12.2°C 46.6°F8.1°C 76% 1.6 mph WSW2.6 kmh WSW 5.0 mph8.0 kmh 29.93 in1013.5 mb 0.00 in0.0 mm 0.00 in0.0 mm 0.02 in0.5 mm
07:27 PM 53.9°F12.2°C 46.6°F8.1°C 76% 1.6 mph WSW2.6 kmh WSW 5.0 mph8.0 kmh 29.93 in1013.5 mb 0.00 in0.0 mm 0.00 in0.0 mm 0.02 in0.5 mm
07:32 PM 53.8°F12.1°C 46.8°F8.2°C 77% 1.1 mph WSW1.8 kmh WSW 5.0 mph8.0 kmh 29.93 in1013.5 mb 0.00 in0.0 mm 0.00 in0.0 mm 0.02 in0.5 mm
07:37 PM 53.7°F12.1°C 46.7°F8.2°C 77% 2.0 mph WSW3.2 kmh WSW 3.0 mph4.8 kmh 29.94 in1013.9 mb 0.00 in0.0 mm 0.00 in0.0 mm 0.02 in0.5 mm
07:42 PM 53.6°F12.0°C 46.6°F8.1°C 77% 1.7 mph W2.7 kmh W 4.0 mph6.4 kmh 29.94 in1013.9 mb 0.00 in0.0 mm 0.00 in0.0 mm 0.02 in0.5 mm
07:47 PM 53.5°F11.9°C 46.5°F8.1°C 77% 1.0 mph WSW1.6 kmh WSW 7.0 mph11.3 kmh 29.94 in1013.9 mb 0.00 in0.0 mm 0.00 in0.0 mm 0.02 in0.5 mm
07:52 PM 53.3°F11.8°C 46.3°F7.9°C 77% 2.0 mph WSW3.2 kmh WSW 7.0 mph11.3 kmh 29.94 in1013.9 mb 0.00 in0.0 mm 0.00 in0.0 mm 0.02 in0.5 mm
07:57 PM 53.2°F11.8°C 46.2°F7.9°C 77% 1.2 mph WSW1.9 kmh WSW 7.0 mph11.3 kmh 29.94 in1013.9 mb 0.00 in0.0 mm 0.00 in0.0 mm 0.02 in0.5 mm
08:02 PM 53.1°F11.7°C 46.5°F8.1°C 78% 2.2 mph WSW3.5 kmh WSW 4.0 mph6.4 kmh 29.94 in1013.9 mb 0.00 in0.0 mm 0.00 in0.0 mm 0.02 in0.5 mm
08:07 PM 53.1°F11.7°C 46.5°F8.1°C 78% Calm Calm 5.0 mph8.0 kmh 29.95 in1014.2 mb 0.00 in0.0 mm 0.00 in0.0 mm 0.02 in0.5 mm
08:12 PM 53.0°F11.7°C 46.4°F8.0°C 78% 2.0 mph WSW3.2 kmh WSW 5.0 mph8.0 kmh 29.95 in1014.2 mb 0.00 in0.0 mm 0.00 in0.0 mm 0.02 in0.5 mm
08:17 PM 53.0°F11.7°C 46.4°F8.0°C 78% 1.0 mph WSW1.6 kmh WSW 5.0 mph8.0 kmh 29.95 in1014.2 mb 0.00 in0.0 mm 0.00 in0.0 mm 0.02 in0.5 mm
08:22 PM 52.9°F11.6°C 46.6°F8.1°C 79% 1.2 mph WSW1.9 kmh WSW 5.0 mph8.0 kmh 29.95 in1014.2 mb 0.00 in0.0 mm 0.00 in0.0 mm 0.02 in0.5 mm
08:27 PM 52.8°F11.6°C 46.5°F8.1°C 79% 2.2 mph WSW3.5 kmh WSW 5.0 mph8.0 kmh 29.95 in1014.2 mb 0.00 in0.0 mm 0.00 in0.0 mm 0.02 in0.5 mm
08:32 PM 52.8°F11.6°C 46.5°F8.1°C 79% 1.1 mph WSW1.8 kmh WSW 5.0 mph8.0 kmh 29.95 in1014.2 mb 0.00 in0.0 mm 0.00 in0.0 mm 0.02 in0.5 mm
08:37 PM 52.7°F11.5°C 46.4°F8.0°C 79% 1.7 mph SW2.7 kmh SW 5.0 mph8.0 kmh 29.95 in1014.2 mb 0.00 in0.0 mm 0.00 in0.0 mm 0.02 in0.5 mm
08:41 PM 52.6°F11.4°C 46.6°F8.1°C 80% 1.3 mph WSW2.1 kmh WSW 5.0 mph8.0 kmh 29.96 in1014.6 mb 0.00 in0.0 mm 0.00 in0.0 mm 0.02 in0.5 mm
08:46 PM 52.6°F11.4°C 46.6°F8.1°C 80% 1.0 mph WSW1.6 kmh WSW 4.0 mph6.4 kmh 29.96 in1014.6 mb 0.00 in0.0 mm 0.00 in0.0 mm 0.02 in0.5 mm
08:51 PM 52.4°F11.3°C 46.4°F8.0°C 80% 1.3 mph SW2.1 kmh SW 4.0 mph6.4 kmh 29.96 in1014.6 mb 0.00 in0.0 mm 0.00 in0.0 mm 0.02 in0.5 mm
08:56 PM 52.3°F11.3°C 46.3°F7.9°C 80% 1.0 mph SW1.6 kmh SW 3.0 mph4.8 kmh 29.97 in1014.9 mb 0.00 in0.0 mm 0.00 in0.0 mm 0.02 in0.5 mm
09:01 PM 52.2°F11.2°C 46.5°F8.1°C 81% 1.3 mph SW2.1 kmh SW 3.0 mph4.8 kmh 29.97 in1014.9 mb 0.00 in0.0 mm 0.00 in0.0 mm 0.02 in0.5 mm
09:06 PM 52.1°F11.2°C 46.4°F8.0°C 81% 1.0 mph SW1.6 kmh SW 3.0 mph4.8 kmh 29.97 in1014.9 mb 0.00 in0.0 mm 0.00 in0.0 mm 0.02 in0.5 mm
09:11 PM 52.1°F11.2°C 46.8°F8.2°C 82% 1.0 mph SW1.6 kmh SW 3.0 mph4.8 kmh 29.97 in1014.9 mb 0.00 in0.0 mm 0.00 in0.0 mm 0.02 in0.5 mm
09:16 PM 52.0°F11.1°C 46.7°F8.2°C 82% 1.0 mph SW1.6 kmh SW 2.0 mph3.2 kmh 29.97 in1014.9 mb 0.00 in0.0 mm 0.00 in0.0 mm 0.02 in0.5 mm
09:21 PM 51.9°F11.1°C 46.9°F8.3°C 83% 1.4 mph SW2.3 kmh SW 2.0 mph3.2 kmh 29.98 in1015.2 mb 0.00 in0.0 mm 0.00 in0.0 mm 0.02 in0.5 mm
09:26 PM 51.8°F11.0°C 46.8°F8.2°C 83% 1.0 mph SW1.6 kmh SW 2.0 mph3.2 kmh 29.98 in1015.2 mb 0.00 in0.0 mm 0.00 in0.0 mm 0.02 in0.5 mm
09:31 PM 51.7°F10.9°C 47.0°F8.3°C 84% 1.1 mph SW1.8 kmh SW 2.0 mph3.2 kmh 29.98 in1015.2 mb 0.00 in0.0 mm 0.00 in0.0 mm 0.02 in0.5 mm
09:36 PM 51.6°F10.9°C 47.2°F8.4°C 85% 1.5 mph SW2.4 kmh SW 2.0 mph3.2 kmh 29.98 in1015.2 mb 0.00 in0.0 mm 0.00 in0.0 mm 0.02 in0.5 mm
09:41 PM 51.4°F10.8°C 47.0°F8.3°C 85% 1.1 mph SW1.8 kmh SW 3.0 mph4.8 kmh 29.98 in1015.2 mb 0.00 in0.0 mm 0.00 in0.0 mm 0.02 in0.5 mm
09:46 PM 51.4°F10.8°C 47.0°F8.3°C 85% 1.0 mph SW1.6 kmh SW 3.0 mph4.8 kmh 29.98 in1015.2 mb 0.00 in0.0 mm 0.00 in0.0 mm 0.02 in0.5 mm
09:51 PM 51.4°F10.8°C 47.0°F8.3°C 85% 1.2 mph WSW1.9 kmh WSW 3.0 mph4.8 kmh 29.98 in1015.2 mb 0.00 in0.0 mm 0.00 in0.0 mm 0.02 in0.5 mm
09:56 PM 51.4°F10.8°C 47.0°F8.3°C 85% Calm Calm 3.0 mph4.8 kmh 29.98 in1015.2 mb 0.00 in0.0 mm 0.00 in0.0 mm 0.02 in0.5 mm
10:01 PM 51.3°F10.7°C 47.3°F8.5°C 86% 1.0 mph SW1.6 kmh SW 2.0 mph3.2 kmh 29.98 in1015.2 mb 0.00 in0.0 mm 0.00 in0.0 mm 0.02 in0.5 mm
10:06 PM 51.2°F10.7°C 47.2°F8.4°C 86% 1.3 mph SW2.1 kmh SW 3.0 mph4.8 kmh 29.98 in1015.2 mb 0.00 in0.0 mm 0.00 in0.0 mm 0.02 in0.5 mm
10:11 PM 51.1°F10.6°C 47.0°F8.3°C 86% 1.4 mph SW2.3 kmh SW 3.0 mph4.8 kmh 29.98 in1015.2 mb 0.00 in0.0 mm 0.00 in0.0 mm 0.02 in0.5 mm
10:16 PM 51.1°F10.6°C 47.0°F8.3°C 86% Calm Calm 3.0 mph4.8 kmh 29.99 in1015.6 mb 0.00 in0.0 mm 0.00 in0.0 mm 0.02 in0.5 mm
10:21 PM 51.0°F10.6°C 47.2°F8.4°C 87% 1.5 mph SW2.4 kmh SW 3.0 mph4.8 kmh 29.99 in1015.6 mb 0.00 in0.0 mm 0.00 in0.0 mm 0.02 in0.5 mm
10:26 PM 50.9°F10.5°C 47.1°F8.4°C 87% 1.3 mph SW2.1 kmh SW 3.0 mph4.8 kmh 29.99 in1015.6 mb 0.00 in0.0 mm 0.00 in0.0 mm 0.02 in0.5 mm
10:31 PM 50.8°F10.4°C 47.3°F8.5°C 88% 1.2 mph SSW1.9 kmh SSW 3.0 mph4.8 kmh 29.99 in1015.6 mb 0.00 in0.0 mm 0.00 in0.0 mm 0.02 in0.5 mm
10:36 PM 50.7°F10.4°C 47.2°F8.4°C 88% 2.0 mph SW3.2 kmh SW 4.0 mph6.4 kmh 29.99 in1015.6 mb 0.00 in0.0 mm 0.00 in0.0 mm 0.02 in0.5 mm
10:41 PM 50.7°F10.4°C 47.3°F8.5°C 88% Calm Calm 4.0 mph6.4 kmh 29.99 in1015.6 mb 0.00 in0.0 mm 0.00 in0.0 mm 0.02 in0.5 mm
10:46 PM 50.7°F10.4°C 47.3°F8.5°C 88% Calm Calm 4.0 mph6.4 kmh 29.99 in1015.6 mb 0.00 in0.0 mm 0.00 in0.0 mm 0.02 in0.5 mm
10:51 PM 50.7°F10.4°C 47.2°F8.4°C 88% Calm Calm 4.0 mph6.4 kmh 29.99 in1015.6 mb 0.00 in0.0 mm 0.00 in0.0 mm 0.02 in0.5 mm
10:56 PM 50.7°F10.4°C 47.2°F8.4°C 88% 1.0 mph SW1.6 kmh SW 3.0 mph4.8 kmh 29.99 in1015.6 mb 0.00 in0.0 mm 0.00 in0.0 mm 0.02 in0.5 mm
11:01 PM 50.6°F10.3°C 47.1°F8.4°C 88% 1.0 mph SW1.6 kmh SW 3.0 mph4.8 kmh 29.99 in1015.6 mb 0.00 in0.0 mm 0.00 in0.0 mm 0.02 in0.5 mm
11:06 PM 50.6°F10.3°C 47.1°F8.4°C 88% 1.3 mph SW2.1 kmh SW 3.0 mph4.8 kmh 29.99 in1015.6 mb 0.00 in0.0 mm 0.00 in0.0 mm 0.02 in0.5 mm
11:11 PM 50.6°F10.3°C 47.1°F8.4°C 88% 1.0 mph SW1.6 kmh SW 3.0 mph4.8 kmh 29.99 in1015.6 mb 0.00 in0.0 mm 0.00 in0.0 mm 0.02 in0.5 mm
11:16 PM 50.5°F10.3°C 47.1°F8.4°C 88% 1.0 mph SW1.6 kmh SW 3.0 mph4.8 kmh 29.99 in1015.6 mb 0.00 in0.0 mm 0.00 in0.0 mm 0.02 in0.5 mm
11:21 PM 50.4°F10.2°C 47.2°F8.4°C 89% 1.3 mph SW2.1 kmh SW 3.0 mph4.8 kmh 29.99 in1015.6 mb 0.00 in0.0 mm 0.00 in0.0 mm 0.02 in0.5 mm
11:26 PM 50.3°F10.2°C 47.1°F8.4°C 89% 2.2 mph SW3.5 kmh SW 5.0 mph8.0 kmh 29.99 in1015.6 mb 0.00 in0.0 mm 0.00 in0.0 mm 0.02 in0.5 mm
11:31 PM 50.4°F10.2°C 47.0°F8.3°C 88% 1.0 mph SW1.6 kmh SW 5.0 mph8.0 kmh 29.99 in1015.6 mb 0.00 in0.0 mm 0.00 in0.0 mm 0.02 in0.5 mm
11:36 PM 50.4°F10.2°C 47.0°F8.3°C 88% 1.3 mph SW2.1 kmh SW 5.0 mph8.0 kmh 30.00 in1015.9 mb 0.00 in0.0 mm 0.00 in0.0 mm 0.02 in0.5 mm
11:41 PM 50.2°F10.1°C 46.8°F8.2°C 88% 1.0 mph SW1.6 kmh SW 5.0 mph8.0 kmh 30.00 in1015.9 mb 0.00 in0.0 mm 0.00 in0.0 mm 0.02 in0.5 mm
11:46 PM 50.0°F10.0°C 46.9°F8.3°C 89% 1.1 mph SW1.8 kmh SW 5.0 mph8.0 kmh 30.00 in1015.9 mb 0.00 in0.0 mm 0.00 in0.0 mm 0.02 in0.5 mm
11:51 PM 49.9°F9.9°C 46.8°F8.2°C 89% 1.9 mph SW3.1 kmh SW 3.0 mph4.8 kmh 30.00 in1015.9 mb 0.00 in0.0 mm 0.00 in0.0 mm 0.02 in0.5 mm
11:56 PM 49.8°F9.9°C 46.7°F8.2°C 89% 1.3 mph SW2.1 kmh SW 3.0 mph4.8 kmh 30.00 in1015.9 mb 0.00 in0.0 mm 0.00 in0.0 mm 0.02 in0.5 mm